Time;durP1;ratioP1;P1;durP2;ratioP2;P2;SDS_P1;SDS_P2;PMS_P1;PMS_P2;Temp;Humidity;BMP_temperature;BMP_pressure;BME280_temperature;BME280_humidity;BME280_pressure;Samples;Min_cycle;Max_cycle;Signal;HPM_P1;HPM_P2
2024/02/22 00:03:03;;;;;;;30.23;18.63;;;;;;;;;;10111958;28;20087;-73
2024/02/22 00:07:58;;;;;;;24.25;18.10;;;;;;;;;;10111881;28;20416;-73
2024/02/22 00:12:52;;;;;;;36.28;21.45;;;;;;;;;;10111465;28;20045;-74
2024/02/22 00:17:45;;;;;;;26.08;19.25;;;;;;;;;;10106683;28;20045;-74
2024/02/22 00:22:40;;;;;;;27.83;20.10;;;;;;;;;;10111214;28;20056;-73
2024/02/22 00:27:36;;;;;;;30.27;20.67;;;;;;;;;;10110778;28;20068;-73
2024/02/22 00:32:31;;;;;;;28.05;20.83;;;;;;;;;;10111234;28;20061;-73
2024/02/22 00:37:26;;;;;;;32.70;19.40;;;;;;;;;;10110688;28;20045;-73
2024/02/22 00:42:21;;;;;;;26.83;17.77;;;;;;;;;;10109684;28;20065;-73
2024/02/22 00:47:15;;;;;;;36.63;21.42;;;;;;;;;;10097918;28;20053;-73
2024/02/22 00:52:09;;;;;;;34.42;19.55;;;;;;;;;;10110120;28;20049;-74
2024/02/22 00:57:04;;;;;;;28.98;22.63;;;;;;;;;;10110230;28;20061;-74
2024/02/22 01:01:58;;;;;;;34.00;25.30;;;;;;;;;;10110101;28;20133;-74
2024/02/22 01:06:54;;;;;;;36.78;23.60;;;;;;;;;;10109308;28;20091;-74
2024/02/22 01:11:48;;;;;;;38.83;28.92;;;;;;;;;;10108920;28;20049;-74
2024/02/22 01:17:02;;;;;;;43.78;28.90;;;;;;;;;;10108867;28;20045;-73
2024/02/22 01:21:57;;;;;;;33.90;20.80;;;;;;;;;;10108806;28;20512;-73
2024/02/22 01:26:51;;;;;;;43.33;29.30;;;;;;;;;;10108844;28;20056;-74
2024/02/22 01:31:46;;;;;;;35.00;23.40;;;;;;;;;;10108828;28;20508;-73
2024/02/22 01:36:39;;;;;;;30.05;21.58;;;;;;;;;;10108461;28;20056;-73
2024/02/22 01:41:34;;;;;;;34.90;22.83;;;;;;;;;;10107828;28;20037;-73
2024/02/22 01:46:29;;;;;;;42.03;25.67;;;;;;;;;;10108415;28;20069;-74
2024/02/22 01:51:24;;;;;;;36.33;24.77;;;;;;;;;;10107714;28;20459;-73
2024/02/22 01:56:20;;;;;;;34.50;21.13;;;;;;;;;;10108159;28;20049;-72
2024/02/22 02:01:14;;;;;;;36.20;22.70;;;;;;;;;;10105188;28;20044;-73
2024/02/22 02:06:08;;;;;;;32.90;21.42;;;;;;;;;;10101742;28;20060;-73
2024/02/22 02:11:02;;;;;;;29.70;21.05;;;;;;;;;;10096622;28;20041;-72
2024/02/22 02:15:56;;;;;;;27.10;19.95;;;;;;;;;;10100249;28;20053;-73
2024/02/22 02:21:09;;;;;;;28.83;22.08;;;;;;;;;;10103630;28;20094;-73
2024/02/22 02:26:06;;;;;;;29.63;21.25;;;;;;;;;;10103369;28;20049;-73
2024/02/22 02:31:01;;;;;;;31.35;19.50;;;;;;;;;;10105071;28;20052;-73
2024/02/22 02:35:55;;;;;;;33.47;18.83;;;;;;;;;;10104084;28;20063;-73
2024/02/22 02:40:49;;;;;;;33.58;21.00;;;;;;;;;;10103744;28;20135;-73
2024/02/22 02:45:44;;;;;;;26.27;17.90;;;;;;;;;;10102575;28;20124;-73
2024/02/22 02:50:39;;;;;;;23.98;16.27;;;;;;;;;;10103278;28;20049;-73
2024/02/22 02:55:34;;;;;;;30.95;18.95;;;;;;;;;;10103793;28;20048;-74
2024/02/22 03:00:28;;;;;;;25.33;17.70;;;;;;;;;;10103382;28;20053;-73
2024/02/22 03:05:26;;;;;;;29.95;18.05;;;;;;;;;;10101895;28;20551;-74
2024/02/22 03:10:20;;;;;;;28.42;17.67;;;;;;;;;;10102200;28;20063;-74
2024/02/22 03:15:15;;;;;;;26.63;14.90;;;;;;;;;;10103134;28;20050;-74
2024/02/22 03:20:10;;;;;;;27.05;15.93;;;;;;;;;;10103159;28;20131;-73
2024/02/22 03:25:07;;;;;;;26.38;15.90;;;;;;;;;;10103343;28;20052;-74
2024/02/22 03:30:03;;;;;;;26.17;15.52;;;;;;;;;;10103001;28;20064;-74
2024/02/22 03:34:58;;;;;;;26.95;15.60;;;;;;;;;;10108681;28;20051;-73
2024/02/22 03:39:52;;;;;;;30.20;17.58;;;;;;;;;;10110656;28;20055;-73
2024/02/22 03:44:45;;;;;;;25.88;15.18;;;;;;;;;;10110228;28;20489;-74
2024/02/22 03:49:39;;;;;;;26.40;15.52;;;;;;;;;;10109948;28;20459;-73
2024/02/22 03:54:37;;;;;;;23.80;15.70;;;;;;;;;;10110130;28;20068;-73
2024/02/22 03:59:31;;;;;;;20.45;12.65;;;;;;;;;;10109879;28;20049;-74
2024/02/22 04:04:28;;;;;;;18.40;12.55;;;;;;;;;;10109878;28;20041;-73
2024/02/22 04:09:22;;;;;;;14.27;10.68;;;;;;;;;;10108634;28;20057;-74
2024/02/22 04:14:16;;;;;;;12.85;9.13;;;;;;;;;;10109231;28;20061;-74
2024/02/22 04:19:11;;;;;;;13.07;7.97;;;;;;;;;;10109387;28;20107;-74
2024/02/22 04:24:08;;;;;;;12.23;8.45;;;;;;;;;;10109287;28;20053;-74
2024/02/22 04:29:02;;;;;;;9.90;7.07;;;;;;;;;;10108933;28;20048;-73
2024/02/22 04:33:56;;;;;;;7.65;6.28;;;;;;;;;;10108400;28;20115;-74
2024/02/22 04:38:54;;;;;;;9.85;6.57;;;;;;;;;;10108552;28;20048;-74
2024/02/22 04:43:48;;;;;;;8.13;5.80;;;;;;;;;;10107318;28;20061;-75
2024/02/22 04:48:44;;;;;;;16.83;10.75;;;;;;;;;;10108298;28;20048;-74
2024/02/22 04:53:39;;;;;;;16.70;12.57;;;;;;;;;;10108104;28;20056;-74
2024/02/22 04:58:38;;;;;;;6.78;5.10;;;;;;;;;;10107919;28;20044;-74
2024/02/22 05:03:32;;;;;;;9.30;5.72;;;;;;;;;;10107789;28;20492;-74
2024/02/22 05:08:27;;;;;;;6.90;5.13;;;;;;;;;;10106428;28;20411;-74
2024/02/22 05:13:23;;;;;;;12.98;6.93;;;;;;;;;;10105350;28;20075;-74
2024/02/22 05:18:17;;;;;;;11.93;7.72;;;;;;;;;;10107313;28;20387;-75
2024/02/22 05:23:11;;;;;;;10.10;7.53;;;;;;;;;;10107396;28;20045;-73
2024/02/22 05:28:08;;;;;;;13.93;7.70;;;;;;;;;;10105745;28;20111;-74
2024/02/22 05:33:03;;;;;;;9.55;6.45;;;;;;;;;;10106793;28;20136;-74
2024/02/22 05:37:57;;;;;;;8.00;6.60;;;;;;;;;;10106753;28;20139;-74
2024/02/22 05:42:51;;;;;;;21.70;17.05;;;;;;;;;;10106203;28;20061;-74
2024/02/22 05:47:48;;;;;;;12.85;10.48;;;;;;;;;;10105502;28;20461;-73
2024/02/22 05:52:42;;;;;;;13.38;8.82;;;;;;;;;;10102683;28;20772;-73
2024/02/22 05:57:36;;;;;;;13.93;8.98;;;;;;;;;;10105205;28;20048;-73
2024/02/22 06:02:30;;;;;;;9.52;5.65;;;;;;;;;;10101692;28;20045;-74
2024/02/22 06:07:25;;;;;;;12.60;7.32;;;;;;;;;;10096664;28;20435;-75
2024/02/22 06:12:19;;;;;;;19.30;12.00;;;;;;;;;;10103800;28;20156;-74
2024/02/22 06:17:13;;;;;;;22.05;15.40;;;;;;;;;;10096775;28;20081;-74
2024/02/22 06:22:08;;;;;;;11.77;9.00;;;;;;;;;;10096329;28;20050;-74
2024/02/22 06:27:03;;;;;;;18.80;12.93;;;;;;;;;;10099247;28;20358;-75
2024/02/22 06:31:57;;;;;;;35.88;22.42;;;;;;;;;;10104328;28;20041;-75
2024/02/22 06:36:51;;;;;;;25.73;13.20;;;;;;;;;;10100890;28;20045;-74
2024/02/22 06:41:45;;;;;;;36.90;23.65;;;;;;;;;;10097384;28;20135;-76
2024/02/22 06:46:43;;;;;;;35.85;23.02;;;;;;;;;;10099092;28;20048;-75
2024/02/22 06:51:37;;;;;;;32.70;18.73;;;;;;;;;;10106301;28;20053;-74
2024/02/22 06:56:32;;;;;;;28.70;14.02;;;;;;;;;;10105523;28;20048;-74
2024/02/22 07:01:28;;;;;;;40.75;18.25;;;;;;;;;;10102184;28;20040;-75
2024/02/22 07:06:22;;;;;;;47.05;24.95;;;;;;;;;;10103352;28;20052;-74
2024/02/22 07:11:17;;;;;;;37.55;20.48;;;;;;;;;;10101017;28;20404;-74
2024/02/22 07:16:12;;;;;;;34.97;18.52;;;;;;;;;;10098748;28;20475;-74
2024/02/22 07:21:06;;;;;;;36.08;17.35;;;;;;;;;;10103824;28;20056;-75
2024/02/22 07:26:00;;;;;;;42.03;20.55;;;;;;;;;;10100649;28;20463;-72
2024/02/22 07:30:55;;;;;;;27.77;17.25;;;;;;;;;;10099078;28;20125;-74
2024/02/22 07:35:50;;;;;;;29.58;16.02;;;;;;;;;;10102404;28;20045;-74
2024/02/22 07:40:44;;;;;;;33.05;22.55;;;;;;;;;;10099516;28;20567;-73
2024/02/22 07:45:38;;;;;;;43.03;23.65;;;;;;;;;;10099224;28;20057;-73
2024/02/22 07:50:34;;;;;;;28.45;15.60;;;;;;;;;;10101026;28;20049;-73
2024/02/22 07:55:28;;;;;;;29.80;16.75;;;;;;;;;;10097523;28;20417;-73
2024/02/22 08:00:22;;;;;;;27.73;16.52;;;;;;;;;;10107857;28;20053;-73
2024/02/22 08:05:17;;;;;;;34.58;20.40;;;;;;;;;;10097597;28;20428;-73
2024/02/22 08:10:12;;;;;;;26.88;16.45;;;;;;;;;;10101655;28;20045;-73
2024/02/22 08:15:09;;;;;;;31.58;14.90;;;;;;;;;;10102515;28;20467;-74
2024/02/22 08:20:06;;;;;;;27.35;15.48;;;;;;;;;;10110608;28;20048;-73
2024/02/22 08:25:01;;;;;;;30.33;16.17;;;;;;;;;;10109005;28;20049;-74
2024/02/22 08:29:55;;;;;;;32.92;18.00;;;;;;;;;;10108570;28;20126;-74
2024/02/22 08:34:49;;;;;;;29.35;17.55;;;;;;;;;;10108291;28;20059;-74
2024/02/22 08:39:43;;;;;;;27.25;16.17;;;;;;;;;;10109890;28;20045;-75
2024/02/22 08:44:37;;;;;;;33.72;15.70;;;;;;;;;;10107896;28;20064;-75
2024/02/22 08:49:32;;;;;;;25.77;15.88;;;;;;;;;;10108614;28;20072;-75
2024/02/22 08:54:26;;;;;;;24.80;12.73;;;;;;;;;;10108085;28;20060;-74
2024/02/22 08:59:20;;;;;;;22.42;12.00;;;;;;;;;;10104551;28;20077;-75
2024/02/22 09:04:15;;;;;;;20.98;12.73;;;;;;;;;;10107649;28;20148;-75
2024/02/22 09:09:10;;;;;;;20.73;11.15;;;;;;;;;;10107690;28;20107;-75
2024/02/22 09:14:05;;;;;;;20.92;11.52;;;;;;;;;;10098677;28;20144;-75
2024/02/22 09:18:58;;;;;;;24.77;10.30;;;;;;;;;;10107384;28;20064;-74
2024/02/22 09:23:52;;;;;;;18.55;11.55;;;;;;;;;;10107382;28;20045;-74
2024/02/22 09:28:46;;;;;;;24.70;13.23;;;;;;;;;;10103541;28;20045;-75
2024/02/22 09:33:40;;;;;;;26.88;14.65;;;;;;;;;;10097368;28;20044;-75
2024/02/22 09:38:35;;;;;;;18.52;13.02;;;;;;;;;;10111116;28;20048;-74
2024/02/22 09:43:29;;;;;;;27.02;12.85;;;;;;;;;;10106662;28;20420;-74
2024/02/22 09:48:24;;;;;;;31.08;12.35;;;;;;;;;;10106047;28;20060;-75
2024/02/22 09:53:19;;;;;;;25.65;11.90;;;;;;;;;;10105834;28;20485;-75
2024/02/22 09:58:19;;;;;;;23.30;11.20;;;;;;;;;;10105622;28;20464;-75
2024/02/22 10:03:13;;;;;;;21.98;11.23;;;;;;;;;;10105576;28;20385;-75
2024/02/22 10:08:13;;;;;;;28.00;13.18;;;;;;;;;;10104158;28;20060;-74
2024/02/22 10:13:19;;;;;;;20.80;14.20;;;;;;;;;;10114060;28;20069;-75
2024/02/22 10:18:24;;;;;;;25.77;14.25;;;;;;;;;;10096657;28;20068;-75
2024/02/22 10:23:19;;;;;;;21.60;12.52;;;;;;;;;;10103895;28;20045;-74
2024/02/22 10:28:16;;;;;;;19.75;14.18;;;;;;;;;;10105736;28;20503;-73
2024/02/22 10:33:11;;;;;;;24.85;15.90;;;;;;;;;;10103638;28;20060;-75
2024/02/22 10:38:09;;;;;;;21.17;13.50;;;;;;;;;;10104586;28;20048;-75
2024/02/22 10:43:07;;;;;;;17.08;10.15;;;;;;;;;;10094620;28;20059;-74
2024/02/22 10:48:05;;;;;;;14.73;10.33;;;;;;;;;;10103812;28;20404;-75
2024/02/22 10:53:05;;;;;;;18.23;12.55;;;;;;;;;;10112650;28;20424;-75
2024/02/22 10:57:59;;;;;;;25.17;12.63;;;;;;;;;;10102826;28;20065;-75
2024/02/22 11:02:53;;;;;;;20.10;11.93;;;;;;;;;;10103920;28;20073;-75
2024/02/22 11:07:54;;;;;;;18.85;12.07;;;;;;;;;;10104151;28;20120;-74
2024/02/22 11:12:52;;;;;;;21.27;13.98;;;;;;;;;;10095730;28;20397;-75
2024/02/22 11:17:55;;;;;;;23.15;14.80;;;;;;;;;;10103562;28;20045;-75
2024/02/22 11:22:50;;;;;;;25.42;14.05;;;;;;;;;;10103870;28;20041;-74
2024/02/22 11:27:44;;;;;;;26.00;15.32;;;;;;;;;;10103058;28;20060;-74
2024/02/22 11:32:38;;;;;;;23.85;13.00;;;;;;;;;;10103532;28;20500;-75
2024/02/22 11:37:32;;;;;;;27.38;14.15;;;;;;;;;;10103104;28;20049;-75
2024/02/22 11:42:56;;;;;;;23.13;13.15;;;;;;;;;;10102976;28;20055;-75
2024/02/22 11:48:09;;;;;;;19.70;11.93;;;;;;;;;;10101852;28;20049;-74
2024/02/22 11:53:22;;;;;;;14.57;9.95;;;;;;;;;;10104135;28;20504;-74
2024/02/22 11:58:17;;;;;;;13.77;9.48;;;;;;;;;;10110413;28;20581;-75
2024/02/22 12:03:15;;;;;;;21.63;10.55;;;;;;;;;;10110012;28;20067;-75
2024/02/22 12:08:26;;;;;;;20.95;9.63;;;;;;;;;;10108474;28;20063;-75
2024/02/22 12:13:20;;;;;;;17.00;8.73;;;;;;;;;;10109549;28;20126;-76
2024/02/22 12:18:14;;;;;;;19.33;10.10;;;;;;;;;;10109628;28;20045;-74
2024/02/22 12:23:08;;;;;;;13.55;8.98;;;;;;;;;;10109395;28;20512;-75
2024/02/22 12:28:04;;;;;;;16.15;7.85;;;;;;;;;;10109126;28;20053;-75
2024/02/22 12:32:58;;;;;;;19.65;7.95;;;;;;;;;;10108139;28;20076;-75
2024/02/22 12:37:54;;;;;;;9.35;6.65;;;;;;;;;;10110009;28;20041;-75
2024/02/22 12:42:54;;;;;;;12.00;7.00;;;;;;;;;;10108005;28;20049;-75
2024/02/22 12:47:48;;;;;;;17.63;7.35;;;;;;;;;;10108500;28;20049;-75
2024/02/22 12:52:42;;;;;;;14.32;6.88;;;;;;;;;;10108338;28;20392;-75
2024/02/22 12:57:36;;;;;;;10.80;7.53;;;;;;;;;;10106927;28;20045;-75
2024/02/22 13:02:30;;;;;;;11.80;7.25;;;;;;;;;;10107451;28;20128;-74
2024/02/22 13:07:28;;;;;;;11.45;7.25;;;;;;;;;;10106912;28;20057;-75
2024/02/22 13:12:22;;;;;;;11.70;7.40;;;;;;;;;;10107839;28;20053;-75
2024/02/22 13:17:17;;;;;;;9.98;6.97;;;;;;;;;;10107411;28;20056;-73
2024/02/22 13:22:10;;;;;;;9.02;7.28;;;;;;;;;;10107277;28;20119;-74
2024/02/22 13:27:06;;;;;;;9.60;6.38;;;;;;;;;;10105527;28;20052;-74
2024/02/22 13:32:02;;;;;;;13.95;7.28;;;;;;;;;;10106684;28;20056;-73
2024/02/22 13:36:59;;;;;;;7.28;5.53;;;;;;;;;;10105402;28;20056;-74
2024/02/22 13:41:56;;;;;;;7.45;5.03;;;;;;;;;;10106001;28;20132;-75
2024/02/22 13:46:51;;;;;;;8.85;4.43;;;;;;;;;;10109103;28;20114;-76
2024/02/22 13:51:57;;;;;;;6.03;4.50;;;;;;;;;;10106563;28;20377;-75
2024/02/22 13:57:02;;;;;;;15.65;4.53;;;;;;;;;;10105666;28;20564;-76
2024/02/22 14:01:56;;;;;;;7.13;4.10;;;;;;;;;;10098129;28;20107;-75
2024/02/22 14:06:50;;;;;;;8.15;4.47;;;;;;;;;;10102569;28;20475;-76
2024/02/22 14:11:44;;;;;;;10.20;3.90;;;;;;;;;;10104312;28;20103;-75
2024/02/22 14:16:38;;;;;;;4.88;3.40;;;;;;;;;;10103677;28;20045;-75
2024/02/22 14:21:32;;;;;;;5.28;3.40;;;;;;;;;;10104574;28;20074;-75
2024/02/22 14:26:27;;;;;;;6.70;4.22;;;;;;;;;;10105660;28;20049;-76
2024/02/22 14:31:22;;;;;;;9.88;5.40;;;;;;;;;;10102218;28;20049;-75
2024/02/22 14:36:16;;;;;;;11.80;7.28;;;;;;;;;;10087420;28;20144;-75
2024/02/22 14:41:09;;;;;;;8.73;6.10;;;;;;;;;;10103971;28;20496;-74
2024/02/22 14:46:03;;;;;;;9.32;5.50;;;;;;;;;;10101691;28;20156;-75
2024/02/22 14:50:57;;;;;;;7.10;4.80;;;;;;;;;;10104396;28;20115;-75
2024/02/22 14:55:53;;;;;;;7.15;5.00;;;;;;;;;;10101969;28;20049;-74
2024/02/22 15:00:47;;;;;;;7.65;5.30;;;;;;;;;;10104242;28;20469;-75
2024/02/22 15:05:41;;;;;;;7.75;5.07;;;;;;;;;;10098038;28;20053;-75
2024/02/22 15:10:35;;;;;;;8.20;4.60;;;;;;;;;;10102678;28;20161;-74
2024/02/22 15:15:29;;;;;;;10.40;5.07;;;;;;;;;;10102278;28;20037;-75
2024/02/22 15:20:24;;;;;;;13.15;7.32;;;;;;;;;;10102733;28;20103;-75
2024/02/22 15:25:19;;;;;;;16.55;6.40;;;;;;;;;;10102308;28;20076;-75
2024/02/22 15:30:13;;;;;;;20.80;16.77;;;;;;;;;;10107069;28;20057;-75
2024/02/22 15:35:08;;;;;;;20.33;15.88;;;;;;;;;;10110435;28;20056;-75
2024/02/22 15:40:05;;;;;;;23.55;16.67;;;;;;;;;;10110822;28;20469;-74
2024/02/22 15:44:59;;;;;;;30.92;23.73;;;;;;;;;;10109828;28;20049;-74
2024/02/22 15:49:53;;;;;;;43.17;31.67;;;;;;;;;;10110015;28;20420;-75
2024/02/22 15:54:57;;;;;;;42.08;31.65;;;;;;;;;;10109989;28;20082;-75
2024/02/22 15:59:51;;;;;;;35.08;28.10;;;;;;;;;;10109333;28;20382;-75
2024/02/22 16:04:45;;;;;;;35.40;28.90;;;;;;;;;;10109609;28;20045;-75
2024/02/22 16:09:39;;;;;;;41.70;32.33;;;;;;;;;;10109368;28;20075;-75
2024/02/22 16:14:33;;;;;;;43.70;31.35;;;;;;;;;;10108196;28;20406;-75
2024/02/22 16:19:28;;;;;;;43.78;31.30;;;;;;;;;;10108956;28;20056;-75
2024/02/22 16:24:22;;;;;;;43.15;31.92;;;;;;;;;;10108593;28;20473;-74
2024/02/22 16:29:16;;;;;;;47.20;31.80;;;;;;;;;;10108388;28;20060;-75
2024/02/22 16:34:12;;;;;;;51.65;35.53;;;;;;;;;;10109444;28;20048;-75
2024/02/22 16:39:07;;;;;;;51.33;34.33;;;;;;;;;;10106478;28;20048;-75
2024/02/22 16:44:07;;;;;;;53.17;35.65;;;;;;;;;;10107865;28;20498;-75
2024/02/22 16:49:02;;;;;;;50.45;34.65;;;;;;;;;;10106150;28;20512;-75
2024/02/22 16:53:56;;;;;;;49.75;34.88;;;;;;;;;;10110775;28;20064;-75
2024/02/22 16:58:58;;;;;;;41.28;30.38;;;;;;;;;;10108663;28;20079;-75
2024/02/22 17:03:55;;;;;;;37.25;19.95;;;;;;;;;;10107812;28;20394;-75
2024/02/22 17:08:48;;;;;;;44.30;31.17;;;;;;;;;;10107866;28;20097;-75
2024/02/22 17:13:42;;;;;;;64.00;41.47;;;;;;;;;;10107622;28;20049;-75
2024/02/22 17:18:35;;;;;;;48.80;36.58;;;;;;;;;;10108459;28;20578;-75
2024/02/22 17:23:30;;;;;;;44.22;35.83;;;;;;;;;;10106228;28;20407;-75
2024/02/22 17:28:25;;;;;;;49.55;37.28;;;;;;;;;;10107870;28;20118;-75
2024/02/22 17:33:21;;;;;;;50.65;41.83;;;;;;;;;;10106689;28;20060;-75
2024/02/22 17:38:15;;;;;;;50.03;38.33;;;;;;;;;;10103195;28;20463;-75
2024/02/22 17:43:09;;;;;;;46.70;33.22;;;;;;;;;;10104941;28;20057;-69
2024/02/22 17:48:04;;;;;;;46.25;33.03;;;;;;;;;;10103511;28;20050;-70
2024/02/22 17:52:59;;;;;;;46.78;35.35;;;;;;;;;;10105874;28;20056;-69
2024/02/22 17:57:53;;;;;;;43.38;38.20;;;;;;;;;;10100401;28;20053;-75
2024/02/22 18:02:47;;;;;;;45.00;35.25;;;;;;;;;;10103942;28;22349;-75
2024/02/22 18:08:00;;;;;;;50.47;36.40;;;;;;;;;;10102565;28;20048;-75
2024/02/22 18:12:56;;;;;;;51.55;36.92;;;;;;;;;;10104911;28;20072;-74
2024/02/22 18:17:50;;;;;;;47.55;36.95;;;;;;;;;;10104915;28;20079;-75
2024/02/22 18:22:45;;;;;;;47.85;36.17;;;;;;;;;;10105068;28;20045;-74
2024/02/22 18:27:39;;;;;;;56.17;38.75;;;;;;;;;;10104291;28;20052;-75
2024/02/22 18:32:33;;;;;;;53.33;40.40;;;;;;;;;;10104434;28;20114;-75
2024/02/22 18:37:27;;;;;;;52.30;36.65;;;;;;;;;;10102586;28;20057;-74
2024/02/22 18:42:21;;;;;;;54.70;41.42;;;;;;;;;;10103919;28;20552;-75
2024/02/22 18:47:16;;;;;;;47.35;39.20;;;;;;;;;;10105061;28;20053;-75
2024/02/22 18:52:10;;;;;;;49.50;40.13;;;;;;;;;;10103811;28;20044;-75
2024/02/22 18:57:04;;;;;;;38.13;29.75;;;;;;;;;;10102786;28;20049;-75
2024/02/22 19:01:58;;;;;;;19.45;14.82;;;;;;;;;;10103122;28;20136;-76
2024/02/22 19:06:56;;;;;;;10.43;7.22;;;;;;;;;;10103900;28;20057;-75
2024/02/22 19:11:51;;;;;;;5.75;3.50;;;;;;;;;;10095757;28;20143;-75
2024/02/22 19:16:46;;;;;;;3.70;2.50;;;;;;;;;;10103037;28;20041;-75
2024/02/22 19:21:42;;;;;;;6.93;2.50;;;;;;;;;;10099829;28;20492;-73
2024/02/22 19:26:35;;;;;;;5.00;2.97;;;;;;;;;;10096449;28;20464;-75
2024/02/22 19:31:29;;;;;;;5.28;3.85;;;;;;;;;;10102100;28;20068;-75
2024/02/22 19:36:26;;;;;;;33.80;28.00;;;;;;;;;;10104063;28;20045;-76
2024/02/22 19:41:33;;;;;;;41.63;35.50;;;;;;;;;;10105040;28;20053;-74
2024/02/22 19:46:27;;;;;;;38.42;27.98;;;;;;;;;;10091283;28;20496;-75
2024/02/22 19:51:22;;;;;;;26.15;18.45;;;;;;;;;;10104016;28;20110;-76
2024/02/22 19:56:18;;;;;;;16.33;14.13;;;;;;;;;;10103065;28;20053;-76
2024/02/22 20:01:14;;;;;;;18.88;15.82;;;;;;;;;;10104213;28;20403;-77
2024/02/22 20:06:08;;;;;;;14.20;10.52;;;;;;;;;;10102747;28;20132;-75
2024/02/22 20:11:06;;;;;;;22.80;17.15;;;;;;;;;;10104033;28;20063;-76
2024/02/22 20:16:00;;;;;;;22.02;17.25;;;;;;;;;;10112713;28;20056;-74
2024/02/22 20:20:59;;;;;;;24.58;17.75;;;;;;;;;;10101406;28;20044;-73
2024/02/22 20:25:52;;;;;;;;;;;;;;;;;;10110930;28;20036;-74
2024/02/22 20:30:48;;;;;;;41.47;29.15;;;;;;;;;;10110083;28;20296;-74
2024/02/22 20:35:43;;;;;;;20.23;15.35;;;;;;;;;;10110037;28;20140;-76
2024/02/22 20:40:37;;;;;;;17.58;12.48;;;;;;;;;;10107567;28;20045;-78
2024/02/22 20:45:36;;;;;;;36.58;31.73;;;;;;;;;;10111052;28;20076;-79
2024/02/22 20:50:31;;;;;;;42.38;30.33;;;;;;;;;;10107994;28;20044;-76
2024/02/22 20:55:28;;;;;;;34.67;27.90;;;;;;;;;;10108992;28;20103;-80
2024/02/22 21:00:24;;;;;;;22.02;16.98;;;;;;;;;;10103198;28;20099;-80
2024/02/22 21:05:20;;;;;;;26.92;21.33;;;;;;;;;;10109118;28;20041;-79
2024/02/22 21:10:15;;;;;;;29.35;24.77;;;;;;;;;;10109080;28;20045;-77
2024/02/22 21:15:11;;;;;;;41.90;33.42;;;;;;;;;;10109295;28;20071;-77
2024/02/22 21:20:10;;;;;;;37.08;29.67;;;;;;;;;;10100406;28;20357;-76
2024/02/22 21:25:07;;;;;;;34.58;27.83;;;;;;;;;;10099693;28;20048;-82
2024/02/22 21:30:03;;;;;;;28.20;17.75;;;;;;;;;;10103061;28;20057;-75
2024/02/22 21:34:59;;;;;;;6.82;4.60;;;;;;;;;;10107107;28;20527;-76
2024/02/22 21:39:53;;;;;;;3.75;2.63;;;;;;;;;;10107577;28;20045;-77
2024/02/22 21:44:48;;;;;;;2.00;1.90;;;;;;;;;;10107326;28;20163;-76
2024/02/22 21:49:43;;;;;;;2.05;1.90;;;;;;;;;;10105111;28;20144;-77
2024/02/22 21:54:37;;;;;;;2.90;1.83;;;;;;;;;;10107068;28;20049;-77
2024/02/22 21:59:32;;;;;;;2.13;1.92;;;;;;;;;;10106533;28;20488;-76
2024/02/22 22:04:27;;;;;;;3.15;2.10;;;;;;;;;;10106527;28;20052;-84
2024/02/22 22:09:21;;;;;;;3.40;2.00;;;;;;;;;;10107339;28;20056;-81
2024/02/22 22:14:16;;;;;;;4.78;3.15;;;;;;;;;;10106603;28;20060;-79
2024/02/22 22:19:09;;;;;;;4.70;4.15;;;;;;;;;;10106490;28;20071;-80
2024/02/22 22:24:05;;;;;;;3.30;2.10;;;;;;;;;;10105267;28;20135;-78
2024/02/22 22:29:04;;;;;;;4.88;2.70;;;;;;;;;;10093689;28;20076;-78
2024/02/22 22:34:02;;;;;;;3.40;2.15;;;;;;;;;;10106062;28;20140;-79
2024/02/22 22:38:56;;;;;;;3.50;2.65;;;;;;;;;;10104748;28;20057;-75
2024/02/22 22:43:51;;;;;;;3.08;2.38;;;;;;;;;;10095022;28;20076;-75
2024/02/22 22:48:45;;;;;;;4.05;2.67;;;;;;;;;;10103612;28;20041;-75
2024/02/22 22:53:40;;;;;;;4.50;3.28;;;;;;;;;;10099942;28;20053;-75
2024/02/22 22:58:34;;;;;;;12.90;8.25;;;;;;;;;;10098710;28;20150;-75
2024/02/22 23:03:29;;;;;;;15.52;10.63;;;;;;;;;;10101402;28;20123;-75
2024/02/22 23:08:23;;;;;;;4.82;3.60;;;;;;;;;;10101623;28;20056;-75
2024/02/22 23:13:16;;;;;;;3.38;3.08;;;;;;;;;;10105054;28;20111;-75
2024/02/22 23:18:10;;;;;;;4.55;2.75;;;;;;;;;;10101552;28;20056;-75
2024/02/22 23:23:05;;;;;;;3.55;2.22;;;;;;;;;;10101986;28;20045;-75
2024/02/22 23:28:01;;;;;;;6.20;2.83;;;;;;;;;;10103202;28;20140;-75
2024/02/22 23:32:56;;;;;;;5.68;2.60;;;;;;;;;;10102659;28;20045;-75
2024/02/22 23:37:51;;;;;;;4.00;2.47;;;;;;;;;;10103360;28;20443;-75
2024/02/22 23:42:45;;;;;;;3.53;2.22;;;;;;;;;;10102473;28;20056;-75
2024/02/22 23:47:38;;;;;;;6.65;2.60;;;;;;;;;;10102591;28;20044;-75
2024/02/22 23:52:31;;;;;;;5.93;2.25;;;;;;;;;;10105859;28;20132;-76
2024/02/22 23:57:29;;;;;;;3.33;2.28;;;;;;;;;;10085831;28;20075;-76
